Lake Ann, Michigan
Current Conditions -  °F | °C
As of 10:53 PM on Sunday 23 Nov 2014 (Local Time) from KTVC Reporting Station
Light Rain Light Rain  
Wind Chill: 46°   Ceiling: 3900
Heat Index: 48°   Visibility: 7mi
Dew Point: 45°   Wind: 5mph
Humidity: 89%   Direction: 100°E
Pressure: 29.27"   Gusts: NA
Location:  44.72°N, 85.84°W
Report Text: KTVC 240353Z AUTO 10004KT 7SM -RA SCT008 BKN039 OVC050 09/07 A2927 RMK AO2 PRESFR SLP913 P0006 T00890072
Loading
Personal Weather Stations






























Interactive Weather Map New forecast layout! Learn more

10-Day Weather Forecast

Advertisements
Track Severe Weather on mobile